Time;durP1;ratioP1;P1;durP2;ratioP2;P2;SDS_P1;SDS_P2;PMS_P1;PMS_P2;Temp;Humidity;BMP_temperature;BMP_pressure;BME280_temperature;BME280_humidity;BME280_pressure;Samples;Min_cycle;Max_cycle;Signal;HPM_P1;HPM_P2
2021/09/13 03:58:10;;;;;;;;;;;;;;;;;;;;;
2021/09/13 04:00:44;;;;;;;5.10;4.70;;;14.20;99.90;;;;;;4928029;28;20625;-92
2021/09/13 04:03:28;;;;;;;5.13;4.73;;;14.10;99.90;;;;;;5042537;28;20724;-92
2021/09/13 04:06:03;;;;;;;6.03;5.53;;;14.20;99.90;;;;;;5046541;28;20638;-92
2021/09/13 04:12:12;;;;;;;;;;;;;;;;;;;;;
2021/09/13 04:14:43;;;;;;;5.20;4.70;;;14.20;99.90;;;;;;5049380;28;20622;-93
2021/09/13 04:20:17;;;;;;;5.10;4.70;;;14.20;99.90;;;;;;5038811;28;20717;-95
2021/09/13 04:26:46;;;;;;;;;;;;;;;;;;;;;
2021/09/13 05:50:31;;;;;;;6.23;5.73;;;14.40;99.90;;;;;;5070013;28;20644;-90
2021/09/13 05:52:58;;;;;;;6.47;5.90;;;14.40;99.90;;;;;;5067379;28;20632;-91
2021/09/13 05:55:25;;;;;;;6.37;5.87;;;14.50;99.90;;;;;;5072401;28;20643;-91
2021/09/13 05:57:53;;;;;;;7.07;5.53;;;14.50;99.90;;;;;;5067396;28;21077;-92
2021/09/13 06:00:21;;;;;;;8.07;6.43;;;14.60;99.90;;;;;;5067311;28;21077;-92
2021/09/13 06:02:48;;;;;;;7.27;5.77;;;14.60;99.90;;;;;;5072887;28;20715;-92
2021/09/13 06:05:16;;;;;;;5.70;5.30;;;14.70;99.90;;;;;;5070417;28;20624;-91
2021/09/13 06:07:45;;;;;;;6.70;6.20;;;14.70;99.90;;;;;;5066581;28;21304;-92
2021/09/13 06:10:12;;;;;;;5.60;5.20;;;14.80;99.90;;;;;;5068640;28;20730;-92
2021/09/13 06:12:39;;;;;;;5.90;5.40;;;14.80;99.90;;;;;;5063384;28;20641;-93
2021/09/13 06:15:08;;;;;;;6.40;5.90;;;14.70;99.90;;;;;;5065083;28;20641;-91
2021/09/13 06:17:35;;;;;;;5.30;4.87;;;14.70;99.90;;;;;;5061886;28;20632;-91
2021/09/13 06:20:06;;;;;;;7.10;6.50;;;14.80;99.90;;;;;;5059241;28;20747;-89
2021/09/13 06:22:33;;;;;;;11.13;6.43;;;14.90;99.90;;;;;;5070348;28;20613;-90
2021/09/13 06:25:02;;;;;;;6.63;6.00;;;14.90;99.90;;;;;;5064049;28;20687;-90
2021/09/13 06:27:29;;;;;;;6.40;5.80;;;14.90;99.90;;;;;;5069406;28;20657;-90
2021/09/13 06:29:56;;;;;;;6.47;5.97;;;15.00;99.90;;;;;;5070493;28;20680;-90
2021/09/13 06:32:23;;;;;;;6.27;5.83;;;15.10;99.90;;;;;;5069400;28;20629;-90
2021/09/13 06:34:50;;;;;;;6.43;5.97;;;15.10;99.90;;;;;;5067669;28;20632;-89
2021/09/13 06:37:19;;;;;;;6.37;5.77;;;15.10;99.90;;;;;;5065129;28;20662;-91
2021/09/13 06:39:47;;;;;;;6.73;6.13;;;15.00;99.90;;;;;;5068259;28;20724;-89
2021/09/13 06:42:15;;;;;;;7.43;6.73;;;15.10;99.90;;;;;;5069775;28;21181;-89
2021/09/13 06:44:45;;;;;;;7.30;6.70;;;15.20;99.90;;;;;;5062839;28;20629;-89
2021/09/13 06:47:22;;;;;;;7.80;7.20;;;15.30;99.90;;;;;;5057120;28;20650;-89
2021/09/13 06:49:49;;;;;;;6.87;6.37;;;15.20;99.90;;;;;;5066474;28;20664;-89
2021/09/13 06:52:16;;;;;;;7.03;6.43;;;15.30;99.90;;;;;;5069029;28;20709;-89
2021/09/13 06:54:46;;;;;;;7.10;6.70;;;15.50;99.90;;;;;;5065167;28;20631;-89
2021/09/13 06:57:13;;;;;;;7.60;6.60;;;15.60;99.90;;;;;;5067752;28;20704;-89
2021/09/13 06:59:42;;;;;;;7.27;6.57;;;15.70;99.90;;;;;;5062207;28;20651;-89
2021/09/13 07:02:09;;;;;;;6.90;6.20;;;15.70;99.90;;;;;;5064165;28;20745;-89
2021/09/13 07:04:36;;;;;;;7.63;7.00;;;15.80;99.90;;;;;;5057708;28;20972;-89
2021/09/13 07:07:03;;;;;;;7.07;6.53;;;16.00;99.90;;;;;;5065315;28;20661;-90
2021/09/13 07:09:30;;;;;;;6.30;5.40;;;16.20;99.90;;;;;;5052673;28;20648;-89
2021/09/13 07:11:56;;;;;;;7.97;7.07;;;16.30;99.90;;;;;;5063358;28;21170;-90
2021/09/13 07:14:23;;;;;;;6.03;5.53;;;16.40;99.90;;;;;;5059768;28;20617;-90
2021/09/13 07:16:53;;;;;;;7.80;6.43;;;16.60;99.90;;;;;;5057535;28;20634;-89
2021/09/13 07:19:20;;;;;;;7.07;6.13;;;16.80;99.90;;;;;;5058364;28;20644;-90
2021/09/13 07:21:47;;;;;;;7.17;6.57;;;17.00;99.90;;;;;;5062022;28;20633;-89
2021/09/13 07:24:15;;;;;;;7.10;6.53;;;17.10;99.90;;;;;;5064422;28;20975;-90
2021/09/13 07:26:54;;;;;;;7.07;6.57;;;17.10;99.90;;;;;;5064106;28;21021;-90
2021/09/13 07:29:21;;;;;;;8.00;7.30;;;17.30;99.90;;;;;;5064517;28;20632;-90
2021/09/13 07:31:48;;;;;;;6.57;5.97;;;17.40;99.90;;;;;;5054742;28;21211;-90
2021/09/13 07:34:16;;;;;;;6.97;6.37;;;17.60;99.90;;;;;;5053333;28;21157;-90
2021/09/13 07:36:43;;;;;;;6.47;5.47;;;17.70;99.90;;;;;;5060641;28;20629;-89
2021/09/13 07:39:09;;;;;;;6.07;5.47;;;17.90;99.90;;;;;;5070544;28;20656;-90
2021/09/13 07:41:37;;;;;;;6.37;5.90;;;18.00;99.90;;;;;;5062280;28;20645;-90
2021/09/13 07:44:04;;;;;;;6.10;5.30;;;18.10;99.90;;;;;;5068396;28;20641;-89
2021/09/13 07:46:31;;;;;;;5.27;4.87;;;18.10;99.90;;;;;;5063656;28;20622;-90
2021/09/13 07:48:58;;;;;;;5.20;4.80;;;18.00;99.90;;;;;;5067784;28;20672;-90
2021/09/13 07:51:57;;;;;;;5.20;4.70;;;18.10;99.90;;;;;;5077111;28;20694;-91
2021/09/13 07:54:25;;;;;;;4.83;4.50;;;18.30;99.90;;;;;;5067831;28;20661;-89
2021/09/13 07:56:53;;;;;;;5.40;4.90;;;18.40;99.90;;;;;;5074081;28;20697;-92
2021/09/13 07:59:21;;;;;;;4.80;4.47;;;18.30;99.90;;;;;;5061530;28;20656;-91
2021/09/13 08:01:48;;;;;;;7.20;4.47;;;18.50;99.90;;;;;;5074705;28;20700;-91
2021/09/13 08:04:15;;;;;;;4.33;3.73;;;18.50;99.90;;;;;;5068909;28;20615;-89
2021/09/13 08:06:44;;;;;;;4.77;4.37;;;18.70;99.90;;;;;;5079290;28;20629;-93
2021/09/13 08:09:23;;;;;;;6.03;3.90;;;18.80;99.90;;;;;;5073593;28;20680;-93
2021/09/13 08:20:33;;;;;;;4.40;3.80;;;19.60;99.90;;;;;;5086306;28;20618;-90
2021/09/13 08:23:05;;;;;;;4.77;4.47;;;19.60;99.90;;;;;;5074967;28;21419;-93
2021/09/13 08:25:33;;;;;;;3.90;3.60;;;19.80;99.90;;;;;;5084938;28;20660;-91
2021/09/13 08:28:02;;;;;;;6.03;4.33;;;19.80;99.90;;;;;;5068409;28;20672;-91
2021/09/13 08:33:36;;;;;;;3.83;3.40;;;20.20;99.90;;;;;;5067231;28;20598;-93
2021/09/13 08:36:03;;;;;;;4.13;3.70;;;20.30;99.90;;;;;;5078836;28;20605;-92
2021/09/13 08:41:35;;;;;;;4.30;3.50;;;20.60;99.90;;;;;;5071856;28;20638;-91
2021/09/13 08:44:07;;;;;;;4.27;3.80;;;20.60;99.90;;;;;;5072949;28;20633;-92
2021/09/13 08:46:42;;;;;;;4.50;3.17;;;20.70;99.90;;;;;;5063969;28;21147;-93
2021/09/13 08:49:11;;;;;;;4.40;4.00;;;21.00;99.90;;;;;;5054311;28;20771;-93
2021/09/13 08:51:38;;;;;;;3.87;3.60;;;21.30;99.90;;;;;;5058370;28;20638;-93
2021/09/13 08:54:09;;;;;;;4.40;3.90;;;21.40;99.90;;;;;;5060395;28;20578;-92
2021/09/13 08:56:39;;;;;;;8.33;3.60;;;21.30;99.90;;;;;;5053861;28;20652;-94
2021/09/13 08:59:11;;;;;;;7.20;3.07;;;21.60;99.90;;;;;;5060244;28;20689;-92
2021/09/13 09:01:41;;;;;;;4.27;3.50;;;21.70;99.90;;;;;;5056918;28;20660;-92
2021/09/13 09:04:08;;;;;;;3.40;3.10;;;21.90;99.90;;;;;;5065463;28;20684;-92
2021/09/13 09:06:37;;;;;;;5.17;3.23;;;21.90;99.90;;;;;;5059865;28;21148;-93
2021/09/13 09:09:06;;;;;;;3.23;2.93;;;22.10;99.90;;;;;;5061558;28;20672;-93
2021/09/13 09:12:00;;;;;;;3.83;3.23;;;22.20;99.90;;;;;;5060416;28;20627;-92
2021/09/13 09:14:34;;;;;;;4.40;4.00;;;22.20;99.90;;;;;;5061754;28;20621;-93
2021/09/13 09:17:07;;;;;;;6.70;3.73;;;22.30;99.90;;;;;;5064645;28;20617;-92
2021/09/13 09:19:34;;;;;;;3.90;3.60;;;22.40;99.90;;;;;;5058008;28;20636;-93
2021/09/13 09:22:23;;;;;;;4.47;4.17;;;22.70;99.90;;;;;;5061049;28;20640;-92
2021/09/13 09:24:52;;;;;;;3.63;3.37;;;22.60;99.90;;;;;;5060567;28;20616;-92
2021/09/13 09:27:20;;;;;;;3.67;3.07;;;22.60;99.90;;;;;;5061616;28;20668;-93
2021/09/13 09:29:47;;;;;;;3.07;2.87;;;22.90;99.90;;;;;;5059594;28;20612;-92
2021/09/13 09:32:22;;;;;;;3.67;3.27;;;23.30;99.90;;;;;;5058671;28;20960;-92
2021/09/13 09:34:51;;;;;;;4.67;3.47;;;23.50;99.90;;;;;;5056735;28;20597;-92
2021/09/13 09:37:18;;;;;;;3.23;3.03;;;23.40;99.90;;;;;;5057436;28;20616;-92
2021/09/13 09:39:48;;;;;;;7.00;3.50;;;23.30;99.90;;;;;;5055224;28;20752;-93
2021/09/13 09:42:28;;;;;;;4.17;3.87;;;23.60;99.90;;;;;;5063895;28;20999;-93
2021/09/13 09:44:55;;;;;;;4.10;3.47;;;23.70;99.90;;;;;;5056639;28;20617;-93
2021/09/13 09:47:23;;;;;;;4.50;3.40;;;24.00;99.90;;;;;;5061419;28;20627;-91
2021/09/13 09:50:00;;;;;;;3.57;3.27;;;24.20;99.90;;;;;;5065768;28;20647;-92
2021/09/13 09:52:45;;;;;;;3.57;2.90;;;24.50;99.90;;;;;;5070174;28;20652;-93
2021/09/13 09:55:17;;;;;;;3.40;2.90;;;24.50;99.90;;;;;;5068513;28;20617;-93
2021/09/13 09:57:46;;;;;;;4.10;3.70;;;24.60;99.90;;;;;;5057787;28;20657;-93
2021/09/13 10:00:26;;;;;;;3.27;3.07;;;24.70;99.90;;;;;;5063419;28;21488;-92
2021/09/13 10:02:56;;;;;;;4.20;3.10;;;24.80;99.90;;;;;;5060441;28;20739;-92
2021/09/13 10:05:26;;;;;;;3.60;3.40;;;24.90;99.90;;;;;;5065323;28;20587;-95
2021/09/13 10:07:53;;;;;;;4.30;3.90;;;24.70;99.90;;;;;;5072214;28;20697;-94
2021/09/13 10:10:22;;;;;;;3.87;3.60;;;25.20;99.90;;;;;;5080435;28;20710;-94
2021/09/13 10:12:49;;;;;;;3.70;3.40;;;25.20;99.90;;;;;;5074031;28;21201;-93
2021/09/13 10:15:17;;;;;;;3.70;3.50;;;25.30;99.90;;;;;;5069384;28;20616;-94
2021/09/13 10:17:45;;;;;;;4.23;3.37;;;25.50;99.90;;;;;;5061705;28;20660;-93
2021/09/13 10:20:14;;;;;;;5.00;3.40;;;25.70;99.90;;;;;;5061139;28;20638;-93
2021/09/13 10:22:44;;;;;;;4.17;3.87;;;25.80;99.90;;;;;;5060379;28;20685;-93
2021/09/13 10:25:12;;;;;;;4.03;3.73;;;26.00;99.90;;;;;;5060147;28;20741;-93
2021/09/13 10:27:40;;;;;;;4.03;3.83;;;26.50;99.90;;;;;;5066467;28;20740;-93
2021/09/13 10:30:17;;;;;;;3.80;3.50;;;26.40;99.90;;;;;;5063554;28;20732;-94
2021/09/13 10:32:45;;;;;;;3.60;3.40;;;26.50;99.90;;;;;;5058768;28;20631;-94
2021/09/13 10:35:15;;;;;;;3.80;3.60;;;26.60;99.90;;;;;;5056915;28;20628;-93
2021/09/13 10:37:45;;;;;;;4.27;3.67;;;26.70;99.90;;;;;;5062471;28;20657;-93
2021/09/13 10:40:25;;;;;;;4.00;3.60;;;26.90;99.90;;;;;;5065417;28;20776;-94
2021/09/13 10:42:54;;;;;;;5.10;4.60;;;27.30;99.90;;;;;;5065234;28;20647;-94
2021/09/13 10:45:27;;;;;;;4.00;3.70;;;27.10;99.10;;;;;;5060171;28;20729;-93
2021/09/13 10:48:07;;;;;;;6.20;5.30;;;26.80;99.00;;;;;;5060350;28;20710;-93
2021/09/13 10:50:42;;;;;;;4.37;4.10;;;27.10;98.60;;;;;;5061488;28;20803;-94
2021/09/13 10:53:30;;;;;;;3.33;3.13;;;27.20;99.90;;;;;;5061289;28;23084;-94
2021/09/13 10:55:59;;;;;;;3.43;3.13;;;27.50;98.30;;;;;;5056342;28;20680;-93
2021/09/13 10:58:42;;;;;;;5.50;3.77;;;27.70;98.30;;;;;;5061394;28;20751;-93
2021/09/13 11:01:11;;;;;;;4.30;4.00;;;27.70;99.60;;;;;;5063244;28;20656;-94
2021/09/13 11:03:43;;;;;;;3.73;3.30;;;28.00;99.90;;;;;;5061742;28;20626;-94
2021/09/13 11:06:52;;;;;;;6.23;3.77;;;28.10;98.00;;;;;;5056408;28;20636;-94
2021/09/13 11:09:24;;;;;;;4.60;3.60;;;28.30;96.70;;;;;;5065115;28;20688;-94
2021/09/13 11:11:57;;;;;;;3.83;3.63;;;28.70;96.00;;;;;;5066638;28;20637;-95
2021/09/13 11:14:26;;;;;;;4.10;3.70;;;28.40;96.10;;;;;;5062125;28;20990;-93
2021/09/13 11:16:55;;;;;;;3.60;3.30;;;28.80;95.00;;;;;;5065053;28;20694;-93
2021/09/13 11:19:23;;;;;;;5.47;5.07;;;29.00;95.00;;;;;;5083472;27;20712;-93
2021/09/13 11:21:52;;;;;;;3.93;3.63;;;29.00;96.10;;;;;;5084607;28;21110;-94
2021/09/13 11:24:20;;;;;;;4.57;4.27;;;29.60;93.30;;;;;;5062785;28;20664;-94
2021/09/13 11:26:50;;;;;;;5.03;4.73;;;29.40;93.60;;;;;;5059864;28;20629;-93
2021/09/13 11:29:19;;;;;;;4.73;4.33;;;29.20;94.20;;;;;;5045994;28;20676;-95
2021/09/13 11:31:48;;;;;;;3.90;3.60;;;29.70;90.60;;;;;;5058497;28;20998;-94
2021/09/13 11:34:39;;;;;;;4.60;4.20;;;29.60;91.60;;;;;;5053954;28;20737;-94
2021/09/13 11:37:09;;;;;;;10.10;9.60;;;29.50;92.00;;;;;;5056322;28;20628;-94
2021/09/13 11:39:38;;;;;;;4.27;3.97;;;29.60;90.60;;;;;;5056651;28;20732;-95
2021/09/13 11:42:09;;;;;;;4.53;3.60;;;30.00;90.60;;;;;;5063030;28;20690;-94
2021/09/13 11:44:44;;;;;;;4.00;3.70;;;30.50;88.50;;;;;;5053977;28;20652;-95
2021/09/13 11:47:13;;;;;;;3.60;3.30;;;30.60;86.50;;;;;;5057388;28;20920;-93
2021/09/13 11:49:42;;;;;;;4.47;4.07;;;30.40;89.80;;;;;;5062916;28;20964;-94
2021/09/13 11:52:15;;;;;;;3.20;3.00;;;30.40;87.90;;;;;;5055489;28;20985;-95
2021/09/13 11:54:45;;;;;;;3.80;3.50;;;30.50;86.30;;;;;;5061176;28;20632;-94
2021/09/13 11:57:37;;;;;;;3.30;3.00;;;30.50;90.50;;;;;;5058416;28;21010;-93
2021/09/13 12:00:09;;;;;;;3.33;3.00;;;30.90;89.50;;;;;;5055964;28;20740;-93
2021/09/13 12:02:36;;;;;;;3.40;3.20;;;31.00;90.40;;;;;;5054683;28;20655;-93
2021/09/13 12:05:09;;;;;;;4.70;4.40;;;31.10;90.30;;;;;;5062778;28;21156;-94
2021/09/13 12:07:36;;;;;;;3.43;3.23;;;31.20;87.10;;;;;;5058943;28;20632;-93
2021/09/13 12:10:04;;;;;;;3.70;3.40;;;31.00;88.20;;;;;;5057880;28;20659;-94
2021/09/13 12:12:32;;;;;;;3.57;3.27;;;31.40;87.10;;;;;;5055005;28;20605;-94
2021/09/13 12:15:05;;;;;;;3.20;2.90;;;32.10;83.60;;;;;;5058050;28;20625;-95
2021/09/13 12:17:40;;;;;;;3.20;3.00;;;32.20;84.90;;;;;;5055996;28;20684;-94
2021/09/13 12:20:13;;;;;;;4.63;3.13;;;32.40;81.00;;;;;;5062615;28;20639;-93
2021/09/13 12:22:41;;;;;;;3.20;3.00;;;32.40;82.30;;;;;;5055338;28;21268;-90
2021/09/13 12:25:13;;;;;;;4.83;3.20;;;32.60;80.40;;;;;;5058638;28;20199;-95
2021/09/13 12:27:43;;;;;;;3.73;3.20;;;32.50;80.50;;;;;;5062651;28;20657;-95
2021/09/13 12:30:17;;;;;;;3.10;2.93;;;32.30;78.70;;;;;;5054253;28;20314;-94
2021/09/13 12:32:58;;;;;;;3.90;3.60;;;32.90;76.20;;;;;;5064425;28;20226;-93
2021/09/13 12:35:40;;;;;;;3.93;3.67;;;33.10;77.20;;;;;;5056159;28;20728;-94
2021/09/13 12:38:10;;;;;;;3.08;2.58;;;33.60;76.10;;;;;;5052270;28;20229;-91
2021/09/13 12:40:57;;;;;;;2.90;2.70;;;33.30;75.00;;;;;;5059669;28;20541;-92
2021/09/13 12:43:26;;;;;;;3.13;2.92;;;32.90;73.10;;;;;;5065106;28;20649;-92
2021/09/13 12:46:05;;;;;;;2.90;2.70;;;32.30;78.20;;;;;;5053319;28;20207;-92
2021/09/13 12:48:33;;;;;;;2.90;2.70;;;31.30;79.90;;;;;;5060630;28;20577;-92
2021/09/13 12:51:02;;;;;;;3.30;3.10;;;31.70;77.00;;;;;;5064770;28;20329;-92
2021/09/13 12:53:30;;;;;;;3.30;3.10;;;32.60;75.20;;;;;;5061985;28;20565;-92
2021/09/13 12:55:58;;;;;;;3.37;3.10;;;32.30;75.90;;;;;;5065326;28;20622;-92
2021/09/13 12:58:34;;;;;;;3.10;2.90;;;32.60;76.70;;;;;;5066600;28;20244;-91
2021/09/13 13:01:04;;;;;;;3.03;2.83;;;32.80;75.70;;;;;;5065678;28;20620;-93
2021/09/13 13:03:33;;;;;;;3.27;2.97;;;32.50;73.90;;;;;;5063187;28;21183;-93
2021/09/13 13:06:01;;;;;;;3.17;2.97;;;33.10;73.10;;;;;;5059188;28;20723;-93
2021/09/13 13:08:29;;;;;;;3.00;2.80;;;33.00;72.70;;;;;;5063261;28;20686;-93
2021/09/13 13:10:57;;;;;;;3.07;2.87;;;33.00;70.30;;;;;;5060582;28;20700;-93
2021/09/13 13:13:24;;;;;;;3.27;2.73;;;33.10;69.70;;;;;;5063878;28;20215;-93
2021/09/13 13:15:51;;;;;;;2.93;2.70;;;32.70;71.40;;;;;;5067691;28;20651;-93
2021/09/13 13:18:22;;;;;;;3.20;2.90;;;33.00;70.20;;;;;;5058186;28;20682;-93
2021/09/13 13:20:51;;;;;;;3.30;2.60;;;32.80;68.70;;;;;;5068175;28;20912;-92
2021/09/13 13:23:18;;;;;;;2.87;2.67;;;32.90;69.60;;;;;;5058769;28;20219;-92
2021/09/13 13:25:46;;;;;;;2.60;2.40;;;33.10;71.60;;;;;;5062488;28;20237;-93
2021/09/13 13:28:17;;;;;;;3.13;2.88;;;33.50;70.30;;;;;;5068577;28;20319;-92
2021/09/13 13:30:43;;;;;;;2.63;2.42;;;32.90;70.90;;;;;;5068635;28;20236;-93
2021/09/13 13:33:10;;;;;;;4.32;2.42;;;33.40;72.90;;;;;;5067730;28;20210;-93
2021/09/13 13:35:40;;;;;;;2.90;2.60;;;33.80;69.80;;;;;;5059548;28;20202;-93
2021/09/13 13:38:08;;;;;;;3.38;3.17;;;34.20;68.70;;;;;;5066980;28;20313;-93
2021/09/13 13:40:35;;;;;;;2.80;2.60;;;34.50;66.00;;;;;;5062646;28;20660;-93
2021/09/13 13:43:05;;;;;;;3.03;2.83;;;34.30;67.70;;;;;;5062503;28;20658;-94
2021/09/13 13:45:32;;;;;;;2.80;2.60;;;33.70;68.50;;;;;;5065725;28;20392;-94
2021/09/13 13:47:59;;;;;;;3.47;2.47;;;33.60;66.80;;;;;;5064170;28;20233;-93
2021/09/13 13:50:27;;;;;;;2.63;2.42;;;33.70;67.60;;;;;;5069224;28;20249;-93
2021/09/13 13:52:55;;;;;;;2.63;2.42;;;33.60;65.40;;;;;;5069943;28;20228;-93
2021/09/13 13:55:22;;;;;;;2.67;2.47;;;33.70;65.30;;;;;;5063634;28;20201;-93
2021/09/13 13:57:51;;;;;;;3.00;2.80;;;33.70;66.00;;;;;;5062567;28;21019;-93
2021/09/13 14:00:19;;;;;;;2.83;2.63;;;33.60;66.10;;;;;;5068022;28;20217;-93
2021/09/13 14:02:45;;;;;;;2.95;2.65;;;33.70;66.20;;;;;;5061830;28;20206;-93
2021/09/13 14:05:12;;;;;;;2.88;2.67;;;34.20;66.20;;;;;;5069474;28;20195;-94
2021/09/13 14:07:39;;;;;;;2.90;2.70;;;34.20;66.90;;;;;;5069809;28;20239;-93
2021/09/13 14:10:11;;;;;;;2.65;2.45;;;33.60;66.60;;;;;;5076282;28;20233;-92
2021/09/13 14:12:38;;;;;;;2.58;2.47;;;33.40;66.10;;;;;;5079527;28;20263;-93
2021/09/13 14:15:08;;;;;;;2.83;2.55;;;33.60;66.50;;;;;;5059586;28;20310;-92
2021/09/13 14:17:35;;;;;;;2.63;2.40;;;34.20;63.70;;;;;;5054698;28;20824;-94
2021/09/13 14:20:02;;;;;;;2.70;2.50;;;33.80;64.60;;;;;;5065237;28;20202;-92
2021/09/13 14:22:30;;;;;;;2.60;2.40;;;33.80;65.40;;;;;;5058820;28;21006;-93
2021/09/13 14:24:57;;;;;;;3.63;2.38;;;34.00;65.30;;;;;;5065764;28;20202;-92
2021/09/13 14:27:25;;;;;;;2.50;2.30;;;33.30;66.60;;;;;;5059922;28;20273;-93
2021/09/13 14:29:52;;;;;;;2.57;2.37;;;33.10;64.00;;;;;;5066466;28;20222;-91
2021/09/13 14:32:19;;;;;;;2.97;2.77;;;33.50;63.80;;;;;;5066743;28;20202;-92
2021/09/13 14:34:47;;;;;;;2.93;2.70;;;33.20;64.80;;;;;;5053929;28;20213;-94
2021/09/13 14:37:14;;;;;;;2.87;2.67;;;33.70;62.80;;;;;;5068777;28;20222;-94
2021/09/13 14:39:42;;;;;;;2.97;2.77;;;33.20;65.60;;;;;;5070598;28;20194;-94
2021/09/13 14:42:10;;;;;;;2.50;2.30;;;33.40;64.30;;;;;;5062291;28;20233;-95
2021/09/13 14:44:38;;;;;;;3.20;2.50;;;33.30;64.50;;;;;;5073509;28;20213;-95
2021/09/13 14:47:06;;;;;;;4.30;2.83;;;32.80;63.20;;;;;;5060820;28;20222;-94
2021/09/13 14:49:33;;;;;;;4.97;3.20;;;32.50;64.40;;;;;;5068687;28;20711;-93
2021/09/13 14:52:00;;;;;;;3.00;2.80;;;32.80;62.30;;;;;;5067356;28;20691;-92
2021/09/13 14:54:27;;;;;;;4.50;2.53;;;32.90;61.60;;;;;;5070896;28;20635;-95
2021/09/13 14:56:54;;;;;;;2.70;2.43;;;32.90;64.00;;;;;;5065647;28;20227;-93
2021/09/13 14:59:22;;;;;;;3.80;3.30;;;32.60;64.00;;;;;;5061222;28;20203;-93
2021/09/13 15:01:54;;;;;;;2.87;2.50;;;32.70;62.80;;;;;;5068178;28;21166;-92
2021/09/13 15:04:20;;;;;;;3.43;2.77;;;32.60;63.50;;;;;;5067497;28;20628;-92
2021/09/13 15:06:48;;;;;;;3.10;2.90;;;33.10;63.10;;;;;;5066930;28;20269;-92
2021/09/13 15:09:16;;;;;;;4.60;2.77;;;32.90;64.00;;;;;;5064209;28;20195;-91
2021/09/13 15:11:46;;;;;;;2.83;2.57;;;32.80;64.20;;;;;;5061547;28;20747;-91
2021/09/13 15:14:13;;;;;;;4.67;4.10;;;32.20;65.00;;;;;;5063741;28;20631;-92
2021/09/13 15:16:40;;;;;;;4.23;2.80;;;32.30;66.50;;;;;;5058578;28;20717;-92
2021/09/13 15:19:08;;;;;;;3.00;2.80;;;32.70;65.40;;;;;;5061872;28;20660;-91
2021/09/13 15:21:38;;;;;;;3.23;2.63;;;32.50;67.30;;;;;;5057933;28;20633;-92
2021/09/13 15:24:05;;;;;;;2.70;2.50;;;32.50;68.30;;;;;;5064793;28;20627;-93
2021/09/13 15:26:33;;;;;;;2.43;2.23;;;32.50;67.60;;;;;;5064020;28;20644;-93
2021/09/13 15:28:59;;;;;;;3.00;2.80;;;32.70;66.10;;;;;;5055902;28;20657;-93
2021/09/13 15:31:26;;;;;;;6.03;2.53;;;33.10;66.10;;;;;;5055402;28;20325;-92
2021/09/13 15:33:56;;;;;;;2.90;2.70;;;33.30;66.40;;;;;;5061993;28;20538;-92
2021/09/13 15:36:24;;;;;;;2.80;2.60;;;33.00;65.90;;;;;;5060033;28;20578;-92
2021/09/13 15:38:51;;;;;;;5.80;2.77;;;33.20;66.20;;;;;;5057155;28;20203;-93
2021/09/13 15:41:21;;;;;;;3.00;2.80;;;33.40;64.60;;;;;;5071835;28;20269;-91
2021/09/13 15:43:51;;;;;;;2.83;2.50;;;33.20;64.10;;;;;;5066497;28;20205;-90
2021/09/13 15:46:22;;;;;;;3.10;2.40;;;33.00;65.20;;;;;;5066558;28;20233;-91
2021/09/13 15:48:49;;;;;;;2.78;2.58;;;33.10;65.00;;;;;;5079352;28;20329;-91
2021/09/13 15:51:16;;;;;;;2.90;2.70;;;32.40;66.00;;;;;;5065875;28;20222;-92
2021/09/13 15:53:44;;;;;;;3.00;2.80;;;32.00;66.80;;;;;;5069167;28;20293;-91
2021/09/13 15:56:12;;;;;;;3.10;2.90;;;31.10;67.30;;;;;;5069722;28;20598;-91
2021/09/13 15:58:45;;;;;;;3.20;3.00;;;30.10;70.60;;;;;;5075140;28;20630;-90
2021/09/13 16:01:12;;;;;;;3.10;2.90;;;29.70;72.10;;;;;;5060244;28;20622;-90
2021/09/13 16:03:39;;;;;;;3.17;2.87;;;29.30;72.80;;;;;;5060393;28;21191;-91
2021/09/13 16:06:06;;;;;;;3.10;2.80;;;29.20;74.70;;;;;;5065446;28;20644;-90
2021/09/13 16:08:32;;;;;;;3.53;2.90;;;28.80;75.90;;;;;;5065159;28;20723;-93
2021/09/13 16:11:00;;;;;;;4.10;3.20;;;28.50;78.70;;;;;;5071175;28;20676;-90
2021/09/13 16:13:27;;;;;;;3.30;3.10;;;28.50;79.40;;;;;;5058474;28;20628;-92
2021/09/13 16:15:54;;;;;;;3.53;3.27;;;28.30;82.00;;;;;;5058066;28;21050;-90
2021/09/13 16:18:21;;;;;;;3.67;3.37;;;28.00;81.40;;;;;;5060367;28;20652;-91
2021/09/13 16:20:54;;;;;;;3.23;3.03;;;28.10;83.10;;;;;;5065981;28;21014;-89
2021/09/13 16:23:26;;;;;;;3.90;3.47;;;27.90;86.50;;;;;;5064988;28;20630;-90
2021/09/13 16:25:54;;;;;;;3.17;2.97;;;28.00;87.20;;;;;;5061409;28;20644;-91
2021/09/13 16:28:25;;;;;;;3.53;2.83;;;28.60;85.60;;;;;;5063714;28;20630;-91
2021/09/13 16:30:55;;;;;;;4.23;2.97;;;28.00;87.60;;;;;;5053890;28;20723;-91
2021/09/13 16:33:24;;;;;;;3.20;3.00;;;27.80;89.40;;;;;;5055651;28;21176;-91
2021/09/13 16:35:54;;;;;;;3.27;2.97;;;27.60;90.80;;;;;;5063792;28;20663;-91
2021/09/13 16:43:50;;;;;;;3.53;3.23;;;27.50;91.50;;;;;;5063819;28;20635;-90
2021/09/13 16:46:44;;;;;;;3.30;3.10;;;27.20;92.90;;;;;;5055361;28;20622;-91
2021/09/13 16:49:17;;;;;;;3.60;3.30;;;27.00;94.10;;;;;;5051234;28;20681;-90
2021/09/13 16:51:43;;;;;;;3.53;3.20;;;26.60;94.80;;;;;;5053468;28;20754;-90
2021/09/13 16:54:10;;;;;;;2.97;2.77;;;26.30;97.80;;;;;;5053203;28;20644;-90
2021/09/13 16:56:37;;;;;;;3.20;3.00;;;25.90;99.60;;;;;;5063959;28;20620;-90
2021/09/13 16:59:05;;;;;;;4.00;3.60;;;25.60;99.90;;;;;;5068399;28;20752;-90
2021/09/13 17:01:32;;;;;;;3.10;2.90;;;25.20;99.90;;;;;;5060134;28;20736;-90
2021/09/13 17:03:59;;;;;;;2.80;2.60;;;24.80;99.90;;;;;;5067171;28;20634;-91
2021/09/13 17:06:27;;;;;;;9.10;8.70;;;24.70;99.90;;;;;;5059959;28;21016;-90
2021/09/13 17:08:54;;;;;;;5.37;3.27;;;24.40;99.90;;;;;;5053973;28;20721;-90
2021/09/13 17:11:21;;;;;;;2.93;2.73;;;24.20;99.90;;;;;;5062177;28;20665;-90
2021/09/13 17:13:48;;;;;;;4.10;3.37;;;24.10;99.90;;;;;;5062524;28;20637;-90
2021/09/13 17:16:17;;;;;;;3.60;3.40;;;23.80;99.90;;;;;;5058728;28;20815;-90
2021/09/13 17:18:45;;;;;;;3.80;3.50;;;23.60;99.90;;;;;;5057987;28;20634;-89
2021/09/13 17:21:17;;;;;;;3.57;2.80;;;23.40;99.90;;;;;;5060844;28;20609;-90
2021/09/13 17:23:45;;;;;;;7.20;3.10;;;23.30;99.90;;;;;;5061595;28;20622;-90
2021/09/13 17:26:11;;;;;;;3.93;3.63;;;23.20;99.90;;;;;;5059909;28;20637;-90
2021/09/13 17:28:38;;;;;;;3.70;2.83;;;23.00;99.90;;;;;;5064254;28;20637;-90
2021/09/13 17:31:05;;;;;;;3.63;2.87;;;22.90;99.90;;;;;;5070413;28;20706;-90
2021/09/13 17:33:33;;;;;;;3.27;2.93;;;22.70;99.90;;;;;;5063590;28;20637;-89
2021/09/13 17:36:00;;;;;;;3.70;3.40;;;22.60;99.90;;;;;;5061636;28;20628;-90
2021/09/13 17:38:27;;;;;;;3.53;3.23;;;22.40;99.90;;;;;;5066850;28;20634;-90
2021/09/13 17:40:57;;;;;;;3.63;3.33;;;22.30;99.90;;;;;;5060472;28;20641;-89
2021/09/13 17:43:24;;;;;;;3.70;3.40;;;22.20;99.90;;;;;;5069737;28;20958;-89
2021/09/13 17:45:51;;;;;;;5.43;3.60;;;22.00;99.90;;;;;;5064276;28;20630;-89
2021/09/13 17:48:18;;;;;;;4.47;3.20;;;21.80;99.90;;;;;;5070386;28;20628;-90
2021/09/13 17:50:47;;;;;;;3.20;3.00;;;21.70;99.90;;;;;;5062116;28;20708;-89
2021/09/13 17:53:14;;;;;;;3.77;3.47;;;21.60;99.90;;;;;;5061190;28;20629;-90
2021/09/13 17:55:41;;;;;;;3.37;3.17;;;21.60;99.90;;;;;;5067570;28;20622;-89
2021/09/13 17:58:08;;;;;;;3.23;2.93;;;21.50;99.90;;;;;;5064956;28;20835;-90
2021/09/13 18:00:35;;;;;;;3.03;2.83;;;21.40;99.90;;;;;;5069687;28;20648;-90
2021/09/13 18:03:02;;;;;;;3.13;2.83;;;21.40;99.90;;;;;;5069301;28;21058;-90
2021/09/13 18:05:29;;;;;;;4.10;3.70;;;21.30;99.90;;;;;;5055771;28;21159;-90
2021/09/13 18:07:57;;;;;;;4.00;3.70;;;21.20;99.90;;;;;;5061659;28;20625;-90
2021/09/13 18:10:24;;;;;;;4.37;3.40;;;21.20;99.90;;;;;;5061823;28;20676;-90
2021/09/13 18:12:51;;;;;;;5.67;3.70;;;21.10;99.90;;;;;;5066972;28;20639;-90
2021/09/13 18:15:20;;;;;;;3.60;3.30;;;21.10;99.90;;;;;;5063123;28;20651;-90
2021/09/13 18:17:47;;;;;;;3.53;3.33;;;21.00;99.90;;;;;;5055082;28;20646;-90
2021/09/13 18:20:14;;;;;;;4.87;3.90;;;20.90;99.90;;;;;;5059122;28;20648;-90
2021/09/13 18:22:41;;;;;;;4.13;3.73;;;20.90;99.90;;;;;;5062661;28;21470;-89
2021/09/13 18:25:10;;;;;;;4.67;4.27;;;20.80;99.90;;;;;;5065908;28;20725;-90
2021/09/13 18:27:37;;;;;;;4.00;3.70;;;20.70;99.90;;;;;;5058241;28;20636;-89
2021/09/13 18:30:05;;;;;;;3.40;3.20;;;20.60;99.90;;;;;;5064958;28;20640;-90
2021/09/13 18:32:32;;;;;;;3.70;3.30;;;20.50;99.90;;;;;;5064348;28;20664;-90
2021/09/13 18:34:58;;;;;;;6.43;4.53;;;20.50;99.90;;;;;;5055575;28;20640;-90
2021/09/13 18:37:27;;;;;;;3.70;3.40;;;20.40;99.90;;;;;;5055682;28;20632;-88
2021/09/13 18:39:54;;;;;;;4.27;3.87;;;20.30;99.90;;;;;;5055932;28;20649;-89
2021/09/13 18:42:22;;;;;;;4.17;3.87;;;20.30;99.90;;;;;;5061038;28;20746;-90
2021/09/13 18:44:49;;;;;;;3.23;2.90;;;20.20;99.90;;;;;;5059240;28;21027;-89
2021/09/13 18:47:15;;;;;;;4.27;4.00;;;20.10;99.90;;;;;;5059410;28;20622;-89
2021/09/13 18:49:42;;;;;;;3.60;3.30;;;20.00;99.90;;;;;;5062245;28;20656;-90
2021/09/13 18:52:09;;;;;;;3.90;3.60;;;19.90;99.90;;;;;;5062064;28;20665;-90